sensor_id;sensor_type;location;lat;lon;timestamp;pressure;altitude;pressure_sealevel;temperature;humidity
24230;BME280;12362;50.004;8.006;2023-01-28T00:02:24;101507.94;;;4.13;100.00
24230;BME280;12362;50.004;8.006;2023-01-28T00:04:49;101500.25;;;4.08;100.00
24230;BME280;12362;50.004;8.006;2023-01-28T00:07:16;101502.78;;;4.11;100.00
24230;BME280;12362;50.004;8.006;2023-01-28T00:09:41;101514.78;;;4.11;100.00
24230;BME280;12362;50.004;8.006;2023-01-28T00:12:06;101507.06;;;4.14;100.00
24230;BME280;12362;50.004;8.006;2023-01-28T00:14:32;101496.81;;;4.11;100.00
24230;BME280;12362;50.004;8.006;2023-01-28T00:16:57;101499.34;;;4.09;100.00
24230;BME280;12362;50.004;8.006;2023-01-28T00:19:23;101495.09;;;4.07;100.00
24230;BME280;12362;50.004;8.006;2023-01-28T00:21:48;101497.69;;;4.02;100.00
24230;BME280;12362;50.004;8.006;2023-01-28T00:24:14;101497.69;;;3.99;100.00
24230;BME280;12362;50.004;8.006;2023-01-28T00:26:39;101491.69;;;4.06;100.00
24230;BME280;12362;50.004;8.006;2023-01-28T00:29:20;101495.09;;;4.07;100.00
24230;BME280;12362;50.004;8.006;2023-01-28T00:31:46;101495.13;;;4.05;100.00
24230;BME280;12362;50.004;8.006;2023-01-28T00:34:12;101492.59;;;3.95;100.00
24230;BME280;12362;50.004;8.006;2023-01-28T00:36:39;101495.19;;;3.89;100.00
24230;BME280;12362;50.004;8.006;2023-01-28T00:39:09;101495.22;;;3.80;100.00
24230;BME280;12362;50.004;8.006;2023-01-28T00:41:35;101494.41;;;3.70;100.00
24230;BME280;12362;50.004;8.006;2023-01-28T00:44:01;101498.72;;;3.61;100.00
24230;BME280;12362;50.004;8.006;2023-01-28T00:46:28;101506.44;;;3.54;100.00
24230;BME280;12362;50.004;8.006;2023-01-28T00:48:53;101503.00;;;3.52;100.00
24230;BME280;12362;50.004;8.006;2023-01-28T00:51:20;101509.03;;;3.42;100.00
24230;BME280;12362;50.004;8.006;2023-01-28T00:53:47;101509.03;;;3.52;100.00
24230;BME280;12362;50.004;8.006;2023-01-28T00:56:15;101509.00;;;3.58;100.00
24230;BME280;12362;50.004;8.006;2023-01-28T00:58:41;101500.44;;;3.55;100.00
24230;BME280;12362;50.004;8.006;2023-01-28T01:01:26;101509.84;;;3.56;100.00
24230;BME280;12362;50.004;8.006;2023-01-28T01:03:53;101512.47;;;3.47;100.00
24230;BME280;12362;50.004;8.006;2023-01-28T01:06:33;101505.59;;;3.50;100.00
24230;BME280;12362;50.004;8.006;2023-01-28T01:09:00;101509.84;;;3.50;100.00
24230;BME280;12362;50.004;8.006;2023-01-28T01:11:26;101505.63;;;3.41;100.00
24230;BME280;12362;50.004;8.006;2023-01-28T01:13:53;101521.03;;;3.41;100.00
24230;BME280;12362;50.004;8.006;2023-01-28T01:16:20;101523.56;;;3.44;100.00
24230;BME280;12362;50.004;8.006;2023-01-28T01:18:47;101523.59;;;3.49;100.00
24230;BME280;12362;50.004;8.006;2023-01-28T01:21:17;101520.16;;;3.45;100.00
24230;BME280;12362;50.004;8.006;2023-01-28T01:23:44;101524.44;;;3.52;100.00
24230;BME280;12362;50.004;8.006;2023-01-28T01:26:10;101527.84;;;3.45;100.00
24230;BME280;12362;50.004;8.006;2023-01-28T01:28:39;101526.16;;;3.46;100.00
24230;BME280;12362;50.004;8.006;2023-01-28T01:31:11;101524.44;;;3.37;100.00
24230;BME280;12362;50.004;8.006;2023-01-28T01:33:39;101528.75;;;3.29;100.00
24230;BME280;12362;50.004;8.006;2023-01-28T01:36:05;101533.88;;;3.29;100.00
24230;BME280;12362;50.004;8.006;2023-01-28T01:38:31;101534.75;;;3.21;100.00
24230;BME280;12362;50.004;8.006;2023-01-28T01:40:58;101539.88;;;3.28;100.00
24230;BME280;12362;50.004;8.006;2023-01-28T01:43:24;101537.28;;;3.27;100.00
24230;BME280;12362;50.004;8.006;2023-01-28T01:45:54;101542.41;;;3.39;100.00
24230;BME280;12362;50.004;8.006;2023-01-28T01:48:27;101540.69;;;3.45;100.00
24230;BME280;12362;50.004;8.006;2023-01-28T01:51:03;101537.28;;;3.42;100.00
24230;BME280;12362;50.004;8.006;2023-01-28T01:53:31;101537.25;;;3.46;100.00
24230;BME280;12362;50.004;8.006;2023-01-28T01:56:00;101532.13;;;3.52;100.00
24230;BME280;12362;50.004;8.006;2023-01-28T01:59:04;101532.13;;;3.45;100.00
24230;BME280;12362;50.004;8.006;2023-01-28T02:01:31;101528.69;;;3.47;100.00
24230;BME280;12362;50.004;8.006;2023-01-28T02:04:02;101530.44;;;3.42;100.00
24230;BME280;12362;50.004;8.006;2023-01-28T02:06:30;101526.13;;;3.44;100.00
24230;BME280;12362;50.004;8.006;2023-01-28T02:08:56;101530.44;;;3.47;100.00
24230;BME280;12362;50.004;8.006;2023-01-28T02:11:24;101541.56;;;3.37;100.00
24230;BME280;12362;50.004;8.006;2023-01-28T02:13:54;101544.13;;;3.34;100.00
24230;BME280;12362;50.004;8.006;2023-01-28T02:16:21;101548.38;;;3.38;100.00
24230;BME280;12362;50.004;8.006;2023-01-28T02:18:47;101541.53;;;3.43;100.00
24230;BME280;12362;50.004;8.006;2023-01-28T02:21:29;101546.69;;;3.46;100.00
24230;BME280;12362;50.004;8.006;2023-01-28T02:33:00;101544.09;;;3.50;100.00
24230;BME280;12362;50.004;8.006;2023-01-28T02:35:47;101544.97;;;3.52;100.00
24230;BME280;12362;50.004;8.006;2023-01-28T02:38:25;101541.56;;;3.49;100.00
24230;BME280;12362;50.004;8.006;2023-01-28T02:41:08;101544.97;;;3.55;100.00
24230;BME280;12362;50.004;8.006;2023-01-28T02:43:42;101544.97;;;3.55;100.00
24230;BME280;12362;50.004;8.006;2023-01-28T02:49:41;101551.84;;;3.29;100.00
24230;BME280;12362;50.004;8.006;2023-01-28T02:53:15;101559.53;;;3.25;100.00
24230;BME280;12362;50.004;8.006;2023-01-28T02:56:03;101553.56;;;3.23;100.00
24230;BME280;12362;50.004;8.006;2023-01-28T02:58:54;101557.81;;;3.18;100.00
24230;BME280;12362;50.004;8.006;2023-01-28T03:01:31;101563.81;;;3.20;100.00
24230;BME280;12362;50.004;8.006;2023-01-28T03:04:07;101568.94;;;3.21;100.00
24230;BME280;12362;50.004;8.006;2023-01-28T03:06:39;101562.06;;;3.32;100.00
24230;BME280;12362;50.004;8.006;2023-01-28T03:09:08;101565.50;;;3.34;100.00
24230;BME280;12362;50.004;8.006;2023-01-28T03:11:58;101571.50;;;3.36;100.00
24230;BME280;12362;50.004;8.006;2023-01-28T03:14:52;101574.91;;;3.32;100.00
24230;BME280;12362;50.004;8.006;2023-01-28T03:20:28;101574.06;;;3.39;100.00
24230;BME280;12362;50.004;8.006;2023-01-28T03:23:21;101579.19;;;3.38;100.00
24230;BME280;12362;50.004;8.006;2023-01-28T03:26:07;101580.03;;;3.35;100.00
24230;BME280;12362;50.004;8.006;2023-01-28T03:29:20;101579.19;;;3.32;100.00
24230;BME280;12362;50.004;8.006;2023-01-28T03:32:06;101590.31;;;3.40;100.00
24230;BME280;12362;50.004;8.006;2023-01-28T03:34:52;101586.91;;;3.35;100.00
24230;BME280;12362;50.004;8.006;2023-01-28T03:37:36;101598.03;;;3.38;100.00
24230;BME280;12362;50.004;8.006;2023-01-28T03:40:22;101597.16;;;3.39;100.00
24230;BME280;12362;50.004;8.006;2023-01-28T03:42:47;101591.19;;;3.37;100.00
24230;BME280;12362;50.004;8.006;2023-01-28T03:45:33;101603.13;;;3.40;100.00
24230;BME280;12362;50.004;8.006;2023-01-28T03:48:00;101608.28;;;3.41;100.00
24230;BME280;12362;50.004;8.006;2023-01-28T03:50:26;101604.84;;;3.38;100.00
24230;BME280;12362;50.004;8.006;2023-01-28T03:52:57;101608.28;;;3.40;100.00
24230;BME280;12362;50.004;8.006;2023-01-28T03:55:49;101604.88;;;3.47;100.00
24230;BME280;12362;50.004;8.006;2023-01-28T03:58:43;101610.00;;;3.36;100.00
24230;BME280;12362;50.004;8.006;2023-01-28T04:01:18;101613.44;;;3.37;100.00
24230;BME280;12362;50.004;8.006;2023-01-28T04:03:44;101610.84;;;3.41;100.00
24230;BME280;12362;50.004;8.006;2023-01-28T04:06:13;101608.28;;;3.47;100.00
24230;BME280;12362;50.004;8.006;2023-01-28T04:08:59;101610.84;;;3.41;100.00
24230;BME280;12362;50.004;8.006;2023-01-28T04:11:30;101603.16;;;3.46;100.00
24230;BME280;12362;50.004;8.006;2023-01-28T04:13:58;101609.13;;;3.45;100.00
24230;BME280;12362;50.004;8.006;2023-01-28T04:16:25;101612.56;;;3.44;100.00
24230;BME280;12362;50.004;8.006;2023-01-28T04:18:52;101606.59;;;3.43;100.00
24230;BME280;12362;50.004;8.006;2023-01-28T04:21:18;101615.13;;;3.45;100.00
24230;BME280;12362;50.004;8.006;2023-01-28T04:23:44;101610.84;;;3.46;100.00
24230;BME280;12362;50.004;8.006;2023-01-28T04:26:12;101617.69;;;3.39;100.00
24230;BME280;12362;50.004;8.006;2023-01-28T04:28:56;101611.69;;;3.39;100.00
24230;BME280;12362;50.004;8.006;2023-01-28T04:31:22;101608.28;;;3.43;100.00
24230;BME280;12362;50.004;8.006;2023-01-28T04:34:06;101617.69;;;3.38;100.00
24230;BME280;12362;50.004;8.006;2023-01-28T04:36:48;101616.81;;;3.39;100.00
24230;BME280;12362;50.004;8.006;2023-01-28T04:39:23;101614.28;;;3.37;100.00
24230;BME280;12362;50.004;8.006;2023-01-28T04:42:08;101606.59;;;3.31;100.00
24230;BME280;12362;50.004;8.006;2023-01-28T04:45:03;101624.53;;;3.37;100.00
24230;BME280;12362;50.004;8.006;2023-01-28T04:47:55;101622.81;;;3.36;100.00
24230;BME280;12362;50.004;8.006;2023-01-28T04:50:36;101621.09;;;3.40;100.00
24230;BME280;12362;50.004;8.006;2023-01-28T04:53:16;101620.25;;;3.36;100.00
24230;BME280;12362;50.004;8.006;2023-01-28T04:56:05;101618.56;;;3.37;100.00
24230;BME280;12362;50.004;8.006;2023-01-28T04:58:36;101617.69;;;3.38;100.00
24230;BME280;12362;50.004;8.006;2023-01-28T05:01:04;101627.09;;;3.27;100.00
24230;BME280;12362;50.004;8.006;2023-01-28T05:03:32;101628.81;;;3.17;100.00
24230;BME280;12362;50.004;8.006;2023-01-28T05:05:58;101632.25;;;3.16;100.00
24230;BME280;12362;50.004;8.006;2023-01-28T05:08:40;101635.63;;;3.17;100.00
24230;BME280;12362;50.004;8.006;2023-01-28T05:11:05;101628.78;;;3.16;100.00
24230;BME280;12362;50.004;8.006;2023-01-28T05:13:31;101635.66;;;3.15;100.00
24230;BME280;12362;50.004;8.006;2023-01-28T05:15:57;101634.78;;;3.13;100.00
24230;BME280;12362;50.004;8.006;2023-01-28T05:18:22;101626.22;;;3.20;100.00
24230;BME280;12362;50.004;8.006;2023-01-28T05:21:04;101628.81;;;3.14;100.00
24230;BME280;12362;50.004;8.006;2023-01-28T05:23:31;101633.94;;;3.13;100.00
24230;BME280;12362;50.004;8.006;2023-01-28T05:25:58;101637.34;;;3.09;100.00
24230;BME280;12362;50.004;8.006;2023-01-28T05:28:23;101643.31;;;3.09;100.00
24230;BME280;12362;50.004;8.006;2023-01-28T05:30:49;101641.63;;;3.11;100.00
24230;BME280;12362;50.004;8.006;2023-01-28T05:33:14;101645.91;;;3.08;100.00
24230;BME280;12362;50.004;8.006;2023-01-28T05:35:41;101658.72;;;3.09;100.00
24230;BME280;12362;50.004;8.006;2023-01-28T05:38:07;101653.59;;;3.12;100.00
24230;BME280;12362;50.004;8.006;2023-01-28T05:40:33;101666.44;;;3.15;100.00
24230;BME280;12362;50.004;8.006;2023-01-28T05:42:58;101657.03;;;3.17;100.00
24230;BME280;12362;50.004;8.006;2023-01-28T05:46:02;101661.31;;;3.15;100.00
24230;BME280;12362;50.004;8.006;2023-01-28T05:48:48;101663.88;;;3.18;100.00
24230;BME280;12362;50.004;8.006;2023-01-28T05:51:35;101658.75;;;3.20;100.00
24230;BME280;12362;50.004;8.006;2023-01-28T05:54:01;101673.28;;;3.21;100.00
24230;BME280;12362;50.004;8.006;2023-01-28T05:56:27;101668.16;;;3.22;100.00
24230;BME280;12362;50.004;8.006;2023-01-28T05:58:56;101664.75;;;3.22;100.00
24230;BME280;12362;50.004;8.006;2023-01-28T06:01:21;101668.16;;;3.16;100.00
24230;BME280;12362;50.004;8.006;2023-01-28T06:03:51;101671.56;;;3.12;100.00
24230;BME280;12362;50.004;8.006;2023-01-28T06:06:17;101672.41;;;3.14;100.00
24230;BME280;12362;50.004;8.006;2023-01-28T06:08:43;101680.97;;;3.13;100.00
24230;BME280;12362;50.004;8.006;2023-01-28T06:11:10;101680.97;;;3.12;100.00
24230;BME280;12362;50.004;8.006;2023-01-28T06:13:36;101686.09;;;3.10;100.00
24230;BME280;12362;50.004;8.006;2023-01-28T06:16:31;101692.06;;;3.08;100.00
24230;BME280;12362;50.004;8.006;2023-01-28T06:19:02;101697.22;;;3.11;100.00
24230;BME280;12362;50.004;8.006;2023-01-28T06:21:28;101694.66;;;3.14;100.00
24230;BME280;12362;50.004;8.006;2023-01-28T06:23:53;101695.50;;;3.10;100.00
24230;BME280;12362;50.004;8.006;2023-01-28T06:26:19;101692.94;;;3.11;100.00
24230;BME280;12362;50.004;8.006;2023-01-28T06:28:45;101691.22;;;3.15;100.00
24230;BME280;12362;50.004;8.006;2023-01-28T06:31:11;101701.50;;;3.07;100.00
24230;BME280;12362;50.004;8.006;2023-01-28T06:33:36;101695.47;;;3.08;100.00
24230;BME280;12362;50.004;8.006;2023-01-28T06:36:03;101703.22;;;3.13;100.00
24230;BME280;12362;50.004;8.006;2023-01-28T06:38:28;101709.19;;;3.10;100.00
24230;BME280;12362;50.004;8.006;2023-01-28T06:40:54;101710.06;;;3.14;100.00
24230;BME280;12362;50.004;8.006;2023-01-28T06:43:23;101709.19;;;3.12;100.00
24230;BME280;12362;50.004;8.006;2023-01-28T06:45:53;101711.75;;;3.09;100.00
24230;BME280;12362;50.004;8.006;2023-01-28T06:48:19;101707.47;;;3.09;100.00
24230;BME280;12362;50.004;8.006;2023-01-28T06:50:46;101716.91;;;3.12;100.00
24230;BME280;12362;50.004;8.006;2023-01-28T06:53:13;101710.91;;;3.16;100.00
24230;BME280;12362;50.004;8.006;2023-01-28T06:55:39;101707.47;;;3.17;100.00
24230;BME280;12362;50.004;8.006;2023-01-28T06:58:04;101716.88;;;3.09;100.00
24230;BME280;12362;50.004;8.006;2023-01-28T07:00:30;101709.19;;;3.10;100.00
24230;BME280;12362;50.004;8.006;2023-01-28T07:02:56;101713.47;;;3.11;100.00
24230;BME280;12362;50.004;8.006;2023-01-28T07:05:22;101706.63;;;3.18;100.00
24230;BME280;12362;50.004;8.006;2023-01-28T07:07:51;101706.63;;;3.15;100.00
24230;BME280;12362;50.004;8.006;2023-01-28T07:10:17;101704.94;;;3.14;100.00
24230;BME280;12362;50.004;8.006;2023-01-28T07:12:43;101704.91;;;3.12;100.00
24230;BME280;12362;50.004;8.006;2023-01-28T07:15:09;101715.16;;;3.12;100.00
24230;BME280;12362;50.004;8.006;2023-01-28T07:17:42;101716.03;;;3.11;100.00
24230;BME280;12362;50.004;8.006;2023-01-28T07:20:11;101714.31;;;3.10;100.00
24230;BME280;12362;50.004;8.006;2023-01-28T07:22:39;101721.13;;;3.08;100.00
24230;BME280;12362;50.004;8.006;2023-01-28T07:25:06;101727.16;;;3.12;100.00
24230;BME280;12362;50.004;8.006;2023-01-28T07:27:31;101721.13;;;3.04;100.00
24230;BME280;12362;50.004;8.006;2023-01-28T07:29:57;101725.44;;;3.12;100.00
24230;BME280;12362;50.004;8.006;2023-01-28T07:32:22;101718.56;;;3.08;100.00
24230;BME280;12362;50.004;8.006;2023-01-28T07:34:51;101720.28;;;3.08;100.00
24230;BME280;12362;50.004;8.006;2023-01-28T07:37:21;101717.75;;;3.15;100.00
24230;BME280;12362;50.004;8.006;2023-01-28T07:39:46;101722.03;;;3.12;100.00
24230;BME280;12362;50.004;8.006;2023-01-28T07:42:12;101719.44;;;3.09;100.00
24230;BME280;12362;50.004;8.006;2023-01-28T07:44:44;101717.72;;;3.08;100.00
24230;BME280;12362;50.004;8.006;2023-01-28T07:47:10;101716.00;;;3.07;100.00
24230;BME280;12362;50.004;8.006;2023-01-28T07:49:36;101721.13;;;3.04;100.00
24230;BME280;12362;50.004;8.006;2023-01-28T07:52:04;101719.44;;;3.09;100.00
24230;BME280;12362;50.004;8.006;2023-01-28T07:54:30;101722.00;;;3.10;100.00
24230;BME280;12362;50.004;8.006;2023-01-28T07:56:55;101729.72;;;3.13;100.00
24230;BME280;12362;50.004;8.006;2023-01-28T07:59:21;101731.41;;;3.08;100.00
24230;BME280;12362;50.004;8.006;2023-01-28T08:01:47;101738.28;;;3.14;100.00
24230;BME280;12362;50.004;8.006;2023-01-28T08:04:12;101741.66;;;3.08;100.00
24230;BME280;12362;50.004;8.006;2023-01-28T08:06:38;101736.53;;;3.01;100.00
24230;BME280;12362;50.004;8.006;2023-01-28T08:09:04;101739.94;;;3.06;100.00
24230;BME280;12362;50.004;8.006;2023-01-28T08:11:31;101741.66;;;3.04;100.00
24230;BME280;12362;50.004;8.006;2023-01-28T08:13:57;101742.50;;;3.00;100.00
24230;BME280;12362;50.004;8.006;2023-01-28T08:16:23;101736.53;;;3.07;100.00
24230;BME280;12362;50.004;8.006;2023-01-28T08:18:49;101737.38;;;3.01;100.00
24230;BME280;12362;50.004;8.006;2023-01-28T08:21:15;101747.63;;;3.01;100.00
24230;BME280;12362;50.004;8.006;2023-01-28T08:23:40;101745.97;;;3.06;100.00
24230;BME280;12362;50.004;8.006;2023-01-28T08:26:06;101744.22;;;3.04;100.00
24230;BME280;12362;50.004;8.006;2023-01-28T08:28:31;101751.06;;;3.09;100.00
24230;BME280;12362;50.004;8.006;2023-01-28T08:30:59;101744.22;;;3.08;100.00
24230;BME280;12362;50.004;8.006;2023-01-28T08:33:24;101744.25;;;3.11;100.00
24230;BME280;12362;50.004;8.006;2023-01-28T08:35:50;101744.25;;;3.14;100.00
24230;BME280;12362;50.004;8.006;2023-01-28T08:38:16;101744.25;;;3.14;100.00
24230;BME280;12362;50.004;8.006;2023-01-28T08:40:42;101753.66;;;3.12;100.00
24230;BME280;12362;50.004;8.006;2023-01-28T08:43:08;101746.84;;;3.17;100.00
24230;BME280;12362;50.004;8.006;2023-01-28T08:45:33;101748.53;;;3.14;100.00
24230;BME280;12362;50.004;8.006;2023-01-28T08:48:07;101749.38;;;3.16;100.00
24230;BME280;12362;50.004;8.006;2023-01-28T08:50:38;101753.69;;;3.14;100.00
24230;BME280;12362;50.004;8.006;2023-01-28T08:53:09;101753.66;;;3.17;100.00
24230;BME280;12362;50.004;8.006;2023-01-28T08:55:35;101755.38;;;3.13;100.00
24230;BME280;12362;50.004;8.006;2023-01-28T08:58:03;101755.38;;;3.16;100.00
24230;BME280;12362;50.004;8.006;2023-01-28T09:00:29;101765.69;;;3.24;100.00
24230;BME280;12362;50.004;8.006;2023-01-28T09:02:54;101780.19;;;3.19;100.00
24230;BME280;12362;50.004;8.006;2023-01-28T09:05:20;101772.50;;;3.26;100.00
24230;BME280;12362;50.004;8.006;2023-01-28T09:07:46;101770.78;;;3.25;100.00
24230;BME280;12362;50.004;8.006;2023-01-28T09:10:12;101775.94;;;3.28;100.00
24230;BME280;12362;50.004;8.006;2023-01-28T09:12:38;101781.06;;;3.27;100.00
24230;BME280;12362;50.004;8.006;2023-01-28T09:15:05;101787.03;;;3.24;100.00
24230;BME280;12362;50.004;8.006;2023-01-28T09:17:30;101777.66;;;3.31;100.00
24230;BME280;12362;50.004;8.006;2023-01-28T09:19:56;101781.94;;;3.36;100.00
24230;BME280;12362;50.004;8.006;2023-01-28T09:22:22;101793.91;;;3.39;100.00
24230;BME280;12362;50.004;8.006;2023-01-28T09:24:48;101785.38;;;3.43;100.00
24230;BME280;12362;50.004;8.006;2023-01-28T09:27:13;101778.53;;;3.42;100.00
24230;BME280;12362;50.004;8.006;2023-01-28T09:29:45;101787.94;;;3.40;100.00
24230;BME280;12362;50.004;8.006;2023-01-28T09:32:11;101788.81;;;3.51;100.00
24230;BME280;12362;50.004;8.006;2023-01-28T09:34:36;101789.69;;;3.51;100.00
24230;BME280;12362;50.004;8.006;2023-01-28T09:37:02;101785.41;;;3.52;100.00
24230;BME280;12362;50.004;8.006;2023-01-28T09:39:28;101788.84;;;3.52;100.00
24230;BME280;12362;50.004;8.006;2023-01-28T09:42:21;101791.41;;;3.55;100.00
24230;BME280;12362;50.004;8.006;2023-01-28T09:44:59;101798.28;;;3.65;100.00
24230;BME280;12362;50.004;8.006;2023-01-28T09:47:54;101791.41;;;3.64;100.00
24230;BME280;12362;50.004;8.006;2023-01-28T09:50:36;101798.22;;;3.52;100.00
24230;BME280;12362;50.004;8.006;2023-01-28T09:53:10;101804.25;;;3.61;100.00
24230;BME280;12362;50.004;8.006;2023-01-28T09:55:40;101808.53;;;3.60;100.00
24230;BME280;12362;50.004;8.006;2023-01-28T09:58:21;101801.69;;;3.73;100.00
24230;BME280;12362;50.004;8.006;2023-01-28T10:13:02;101805.13;;;3.67;100.00
24230;BME280;12362;50.004;8.006;2023-01-28T10:15:20;101811.97;;;3.73;100.00
24230;BME280;12362;50.004;8.006;2023-01-28T10:18:10;101812.81;;;3.76;100.00
24230;BME280;12362;50.004;8.006;2023-01-28T10:20:50;101810.28;;;3.90;100.00
24230;BME280;12362;50.004;8.006;2023-01-28T10:26:14;101830.81;;;3.88;100.00
24230;BME280;12362;50.004;8.006;2023-01-28T10:29:22;101824.84;;;3.79;100.00
24230;BME280;12362;50.004;8.006;2023-01-28T10:35:20;101829.94;;;3.73;100.00
24230;BME280;12362;50.004;8.006;2023-01-28T10:37:46;101818.81;;;3.65;100.00
24230;BME280;12362;50.004;8.006;2023-01-28T10:40:26;101819.69;;;3.71;100.00
24230;BME280;12362;50.004;8.006;2023-01-28T10:42:58;101828.22;;;3.69;100.00
24230;BME280;12362;50.004;8.006;2023-01-28T10:49:00;101830.81;;;3.72;100.00
24230;BME280;12362;50.004;8.006;2023-01-28T10:51:46;101823.09;;;3.66;100.00
24230;BME280;12362;50.004;8.006;2023-01-28T10:54:31;101828.25;;;3.70;100.00
24230;BME280;12362;50.004;8.006;2023-01-28T10:57:08;101830.78;;;3.69;100.00
24230;BME280;12362;50.004;8.006;2023-01-28T10:59:41;101825.69;;;3.79;100.00
24230;BME280;12362;50.004;8.006;2023-01-28T11:05:17;101817.97;;;3.97;100.00
24230;BME280;12362;50.004;8.006;2023-01-28T11:08:29;101821.41;;;3.84;100.00
24230;BME280;12362;50.004;8.006;2023-01-28T11:11:13;101822.28;;;3.92;100.00
24230;BME280;12362;50.004;8.006;2023-01-28T11:13:53;101818.84;;;3.77;100.00
24230;BME280;12362;50.004;8.006;2023-01-28T11:16:56;101835.06;;;3.74;100.00
24230;BME280;12362;50.004;8.006;2023-01-28T11:19:58;101825.69;;;3.79;100.00
24230;BME280;12362;50.004;8.006;2023-01-28T11:22:52;101826.53;;;3.77;100.00
24230;BME280;12362;50.004;8.006;2023-01-28T11:25:36;101832.50;;;3.70;100.00
24230;BME280;12362;50.004;8.006;2023-01-28T11:28:24;101833.38;;;3.75;100.00
24230;BME280;12362;50.004;8.006;2023-01-28T11:31:09;101829.91;;;3.58;100.00
24230;BME280;12362;50.004;8.006;2023-01-28T11:33:51;101828.19;;;3.57;100.00
24230;BME280;12362;50.004;8.006;2023-01-28T11:39:23;101820.53;;;3.67;100.00
24230;BME280;12362;50.004;8.006;2023-01-28T11:45:00;101823.97;;;3.77;100.00
24230;BME280;12362;50.004;8.006;2023-01-28T11:47:43;101815.34;;;3.57;100.00
24230;BME280;12362;50.004;8.006;2023-01-28T11:50:34;101815.38;;;3.56;100.00
24230;BME280;12362;50.004;8.006;2023-01-28T11:53:23;101822.19;;;3.48;100.00
24230;BME280;12362;50.004;8.006;2023-01-28T11:56:30;101810.22;;;3.60;100.00
24230;BME280;12362;50.004;8.006;2023-01-28T11:59:35;101803.41;;;3.71;100.00
24230;BME280;12362;50.004;8.006;2023-01-28T12:18:18;101803.38;;;3.50;100.00
24230;BME280;12362;50.004;8.006;2023-01-28T12:21:49;101807.63;;;3.41;100.00
24230;BME280;12362;50.004;8.006;2023-01-28T12:27:50;101817.00;;;3.34;100.00
24230;BME280;12362;50.004;8.006;2023-01-28T12:30:59;101808.44;;;3.26;100.00
24230;BME280;12362;50.004;8.006;2023-01-28T12:42:50;101800.75;;;3.31;100.00
24230;BME280;12362;50.004;8.006;2023-01-28T12:45:49;101801.66;;;3.40;100.00
24230;BME280;12362;50.004;8.006;2023-01-28T12:48:47;101795.66;;;3.47;100.00
24230;BME280;12362;50.004;8.006;2023-01-28T12:57:32;101791.38;;;3.37;100.00
24230;BME280;12362;50.004;8.006;2023-01-28T13:00:33;101784.56;;;3.51;100.00
24230;BME280;12362;50.004;8.006;2023-01-28T13:03:21;101783.72;;;3.61;100.00
24230;BME280;12362;50.004;8.006;2023-01-28T13:06:07;101783.72;;;3.70;100.00
24230;BME280;12362;50.004;8.006;2023-01-28T13:08:47;101794.00;;;3.73;100.00
24230;BME280;12362;50.004;8.006;2023-01-28T13:11:34;101795.69;;;3.53;100.00
24230;BME280;12362;50.004;8.006;2023-01-28T13:14:18;101802.50;;;3.48;100.00
24230;BME280;12362;50.004;8.006;2023-01-28T13:17:38;101799.91;;;3.32;100.00
24230;BME280;12362;50.004;8.006;2023-01-28T13:20:15;101809.28;;;3.21;100.00
24230;BME280;12362;50.004;8.006;2023-01-28T13:23:04;101818.66;;;3.19;100.00
24230;BME280;12362;50.004;8.006;2023-01-28T13:25:33;101822.94;;;3.17;100.00
24230;BME280;12362;50.004;8.006;2023-01-28T13:28:21;101827.22;;;3.18;100.00
24230;BME280;12362;50.004;8.006;2023-01-28T13:31:07;101826.34;;;3.10;100.00
24230;BME280;12362;50.004;8.006;2023-01-28T13:36:37;101838.34;;;3.14;100.00
24230;BME280;12362;50.004;8.006;2023-01-28T13:39:37;101841.69;;;3.04;100.00
24230;BME280;12362;50.004;8.006;2023-01-28T13:45:26;101844.22;;;2.95;100.00
24230;BME280;12362;50.004;8.006;2023-01-28T13:51:25;101840.03;;;3.07;100.00
24230;BME280;12362;50.004;8.006;2023-01-28T13:57:04;101838.31;;;3.06;100.00
24230;BME280;12362;50.004;8.006;2023-01-28T14:05:05;101843.44;;;3.12;100.00
24230;BME280;12362;50.004;8.006;2023-01-28T14:23:43;101848.63;;;3.18;100.00
24230;BME280;12362;50.004;8.006;2023-01-28T14:26:57;101853.69;;;3.03;100.00
24230;BME280;12362;50.004;8.006;2023-01-28T14:30:17;101855.28;;;2.85;100.00
24230;BME280;12362;50.004;8.006;2023-01-28T14:32:54;101858.72;;;2.87;100.00
24230;BME280;12362;50.004;8.006;2023-01-28T14:35:42;101851.09;;;3.00;100.00
24230;BME280;12362;50.004;8.006;2023-01-28T14:38:24;101843.41;;;2.99;100.00
24230;BME280;12362;50.004;8.006;2023-01-28T14:41:02;101849.38;;;3.02;100.00
24230;BME280;12362;50.004;8.006;2023-01-28T14:43:36;101846.81;;;3.02;100.00
24230;BME280;12362;50.004;8.006;2023-01-28T14:46:42;101845.09;;;2.98;100.00
24230;BME280;12362;50.004;8.006;2023-01-28T14:49:26;101836.50;;;2.90;100.00
24230;BME280;12362;50.004;8.006;2023-01-28T14:52:29;101830.56;;;2.99;100.00
24230;BME280;12362;50.004;8.006;2023-01-28T15:01:19;101824.66;;;3.16;100.00
24230;BME280;12362;50.004;8.006;2023-01-28T15:03:45;101834.97;;;3.24;100.00
24230;BME280;12362;50.004;8.006;2023-01-28T15:06:16;101834.94;;;3.22;100.00
24230;BME280;12362;50.004;8.006;2023-01-28T15:08:41;101834.88;;;3.04;100.00
24230;BME280;12362;50.004;8.006;2023-01-28T15:11:11;101834.88;;;3.06;100.00
24230;BME280;12362;50.004;8.006;2023-01-28T15:13:40;101837.47;;;3.12;100.00
24230;BME280;12362;50.004;8.006;2023-01-28T15:16:15;101845.19;;;3.16;100.00
24230;BME280;12362;50.004;8.006;2023-01-28T15:18:42;101841.75;;;3.16;100.00
24230;BME280;12362;50.004;8.006;2023-01-28T15:21:09;101840.06;;;3.16;100.00
24230;BME280;12362;50.004;8.006;2023-01-28T15:23:37;101827.22;;;3.16;100.00
24230;BME280;12362;50.004;8.006;2023-01-28T15:26:04;101818.56;;;2.92;100.00
24230;BME280;12362;50.004;8.006;2023-01-28T15:28:33;101824.56;;;2.98;100.00
24230;BME280;12362;50.004;8.006;2023-01-28T15:30:59;101822.03;;;3.00;100.00